createdAt,value
2017-08-01T00:00:08.390Z,0
2017-08-01T00:01:08.368Z,0
2017-08-01T00:02:08.361Z,0
2017-08-01T00:03:08.030Z,0
2017-08-01T00:04:08.312Z,0
2017-08-01T00:05:08.003Z,0
2017-08-01T00:06:07.985Z,0
2017-08-01T00:07:08.268Z,0
2017-08-01T00:08:07.992Z,0
2017-08-01T00:09:08.221Z,0
2017-08-01T00:10:08.203Z,0
2017-08-01T00:11:08.589Z,0
2017-08-01T00:12:07.874Z,0
2017-08-01T00:13:07.851Z,0
2017-08-01T00:14:07.833Z,0
2017-08-01T00:15:07.541Z,0
2017-08-01T00:16:07.501Z,0
2017-08-01T00:17:07.479Z,0
2017-08-01T00:18:07.480Z,0
2017-08-01T00:19:07.446Z,0
2017-08-01T00:20:08.020Z,0
2017-08-01T00:21:07.704Z,0
2017-08-01T00:22:07.996Z,0
2017-08-01T00:23:07.962Z,0
2017-08-01T00:24:07.950Z,0
2017-08-01T00:25:07.628Z,0
2017-08-01T00:26:07.905Z,0
2017-08-01T00:27:07.594Z,0
2017-08-01T00:28:07.570Z,0
2017-08-01T00:29:07.853Z,0
2017-08-01T00:30:07.535Z,0
2017-08-01T00:31:07.519Z,0
2017-08-01T00:32:07.798Z,0
2017-08-01T00:33:07.478Z,0
2017-08-01T00:34:07.465Z,0
2017-08-01T00:35:07.444Z,0
2017-08-01T00:36:07.719Z,0
2017-08-01T00:37:07.406Z,0
2017-08-01T00:38:07.408Z,0
2017-08-01T00:39:07.659Z,0
2017-08-01T00:40:07.348Z,0
2017-08-01T00:41:07.628Z,0
2017-08-01T00:42:07.311Z,0
2017-08-01T00:43:07.293Z,0
2017-08-01T00:44:07.571Z,0
2017-08-01T00:45:07.248Z,0
2017-08-01T00:46:07.530Z,0
2017-08-01T00:47:07.513Z,0
2017-08-01T00:48:07.486Z,0
2017-08-01T00:49:07.181Z,0
2017-08-01T00:50:07.450Z,0
2017-08-01T00:51:07.434Z,0
2017-08-01T00:52:07.414Z,0
2017-08-01T00:53:07.398Z,0
2017-08-01T00:54:07.380Z,0
2017-08-01T00:55:07.382Z,0
2017-08-01T00:56:07.342Z,0
2017-08-01T00:57:07.028Z,0
2017-08-01T00:58:07.294Z,0
2017-08-01T00:59:06.984Z,0
2017-08-01T01:00:07.261Z,0
2017-08-01T01:01:06.950Z,0
2017-08-01T01:02:07.225Z,0
2017-08-01T01:03:07.217Z,0
2017-08-01T01:04:06.897Z,0
2017-08-01T01:05:06.871Z,0
2017-08-01T01:06:07.150Z,0
2017-08-01T01:07:07.131Z,0
2017-08-01T01:08:07.109Z,0
2017-08-01T01:09:07.090Z,0
2017-08-01T01:10:07.071Z,0
2017-08-01T01:11:07.065Z,0
2017-08-01T01:12:06.734Z,0
2017-08-01T01:13:07.024Z,0
2017-08-01T01:14:06.697Z,0
2017-08-01T01:15:06.982Z,0
2017-08-01T01:16:06.960Z,0
2017-08-01T01:17:06.657Z,0
2017-08-01T01:18:06.919Z,0
2017-08-01T01:19:06.901Z,0
2017-08-01T01:20:06.878Z,0
2017-08-01T01:21:06.932Z,0
2017-08-01T01:22:06.844Z,0
2017-08-01T01:23:06.525Z,0
2017-08-01T01:24:06.804Z,0
2017-08-01T01:25:06.789Z,0
2017-08-01T01:26:06.178Z,0
2017-08-01T01:27:06.744Z,0
2017-08-01T01:28:06.731Z,0
2017-08-01T01:29:06.426Z,0
2017-08-01T01:30:06.693Z,0
2017-08-01T01:31:06.081Z,0
2017-08-01T01:32:06.352Z,0
2017-08-01T01:33:06.634Z,0
2017-08-01T01:34:06.041Z,0
2017-08-01T01:35:06.605Z,0
2017-08-01T01:36:06.574Z,0
2017-08-01T01:37:06.553Z,0
2017-08-01T01:38:06.241Z,0
2017-08-01T01:39:06.224Z,0
2017-08-01T01:40:06.203Z,0
2017-08-01T01:41:06.179Z,0
2017-08-01T01:42:06.163Z,0
2017-08-01T01:43:06.444Z,0
2017-08-01T01:44:06.127Z,0
2017-08-01T01:45:06.106Z,0
2017-08-01T01:46:06.378Z,0
2017-08-01T01:47:06.065Z,0
2017-08-01T01:48:06.348Z,0
2017-08-01T01:49:06.031Z,0
2017-08-01T01:50:06.009Z,0
2017-08-01T01:51:05.994Z,0
2017-08-01T01:52:05.971Z,0
2017-08-01T01:53:06.255Z,0
2017-08-01T01:54:06.227Z,0
2017-08-01T01:55:06.218Z,0
2017-08-01T01:56:06.190Z,0
2017-08-01T01:57:05.881Z,0
2017-08-01T01:58:06.162Z,0
2017-08-01T01:59:06.132Z,0
2017-08-01T02:00:06.124Z,0
2017-08-01T02:01:05.797Z,0
2017-08-01T02:02:06.081Z,0
2017-08-01T02:03:06.065Z,0
2017-08-01T02:04:06.067Z,0
2017-08-01T02:05:06.024Z,0
2017-08-01T02:06:06.007Z,0
2017-08-01T02:07:05.985Z,0
2017-08-01T02:08:05.971Z,0
2017-08-01T02:09:05.652Z,0
2017-08-01T02:10:05.927Z,0
2017-08-01T02:11:05.934Z,0
2017-08-01T02:12:05.892Z,0
2017-08-01T02:13:06.087Z,0
2017-08-01T02:14:05.853Z,0
2017-08-01T02:15:05.538Z,0
2017-08-01T02:16:05.522Z,0
2017-08-01T02:17:05.801Z,0
2017-08-01T02:18:05.779Z,0
2017-08-01T02:19:05.759Z,0
2017-08-01T02:20:05.443Z,0
2017-08-01T02:21:05.724Z,0
2017-08-01T02:22:05.709Z,0
2017-08-01T02:23:05.681Z,0
2017-08-01T02:24:05.666Z,0
2017-08-01T02:25:05.651Z,0
2017-08-01T02:26:05.625Z,0
2017-08-01T02:27:05.021Z,0
2017-08-01T02:28:05.590Z,0
2017-08-01T02:29:05.572Z,0
2017-08-01T02:30:05.566Z,0
2017-08-01T02:31:05.536Z,0
2017-08-01T02:32:05.529Z,0
2017-08-01T02:33:05.518Z,0
2017-08-01T02:34:05.186Z,0
2017-08-01T02:35:05.466Z,0
2017-08-01T02:36:05.444Z,0
2017-08-01T02:37:05.125Z,0
2017-08-01T02:38:05.119Z,0
2017-08-01T02:39:05.385Z,0
2017-08-01T02:40:05.074Z,0
2017-08-01T02:41:05.345Z,0
2017-08-01T02:42:05.333Z,0
2017-08-01T02:43:05.316Z,0
2017-08-01T02:44:04.998Z,0
2017-08-01T02:45:04.974Z,0
2017-08-01T02:46:04.958Z,0
2017-08-01T02:47:05.237Z,0
2017-08-01T02:48:05.217Z,0
2017-08-01T02:49:05.200Z,0
2017-08-01T02:50:04.889Z,0
2017-08-01T02:51:05.159Z,0
2017-08-01T02:52:05.149Z,0
2017-08-01T02:53:05.121Z,0
2017-08-01T02:54:05.099Z,0
2017-08-01T02:55:04.788Z,0
2017-08-01T02:56:04.764Z,0
2017-08-01T02:57:05.043Z,0
2017-08-01T02:58:05.032Z,0
2017-08-01T02:59:05.006Z,0
2017-08-01T03:00:04.691Z,0
2017-08-01T03:01:04.969Z,0
2017-08-01T03:02:04.952Z,0
2017-08-01T03:03:04.699Z,0
2017-08-01T03:04:04.920Z,0
2017-08-01T03:05:04.898Z,0
2017-08-01T03:06:04.871Z,0
2017-08-01T03:07:04.863Z,0
2017-08-01T03:08:04.833Z,0
2017-08-01T03:09:04.522Z,0
2017-08-01T03:10:04.494Z,0
2017-08-01T03:11:04.781Z,0
2017-08-01T03:12:04.758Z,0
2017-08-01T03:13:04.741Z,0
2017-08-01T03:14:04.715Z,0
2017-08-01T03:15:04.701Z,0
2017-08-01T03:16:04.683Z,4
2017-08-01T03:17:04.671Z,4
2017-08-01T03:18:04.654Z,4
2017-08-01T03:19:04.627Z,4
2017-08-01T03:20:04.605Z,0
2017-08-01T03:21:04.589Z,4
2017-08-01T03:22:04.572Z,4
2017-08-01T03:23:04.548Z,8
2017-08-01T03:24:04.536Z,4
2017-08-01T03:25:04.238Z,8
2017-08-01T03:26:04.489Z,8
2017-08-01T03:27:04.174Z,8
2017-08-01T03:28:04.451Z,12
2017-08-01T03:29:04.432Z,12
2017-08-01T03:30:04.112Z,16
2017-08-01T03:31:04.412Z,16
2017-08-01T03:32:04.374Z,20
2017-08-01T03:33:04.358Z,24
2017-08-01T03:34:04.346Z,28
2017-08-01T03:35:04.310Z,32
2017-08-01T03:36:03.997Z,36
2017-08-01T03:37:04.281Z,44
2017-08-01T03:38:03.954Z,48
2017-08-01T03:39:04.236Z,52
2017-08-01T03:40:04.223Z,60
2017-08-01T03:41:04.206Z,64
2017-08-01T03:42:04.177Z,72
2017-08-01T03:43:03.867Z,76
2017-08-01T03:44:04.145Z,84
2017-08-01T03:45:04.127Z,88
2017-08-01T03:46:03.804Z,92
2017-08-01T03:47:04.085Z,96
2017-08-01T03:48:03.769Z,100
2017-08-01T03:49:04.043Z,112
2017-08-01T03:50:04.019Z,116
2017-08-01T03:51:04.000Z,128
2017-08-01T03:52:03.981Z,140
2017-08-01T03:53:03.962Z,148
2017-08-01T03:54:03.944Z,160
2017-08-01T03:55:03.974Z,172
2017-08-01T03:56:03.907Z,188
2017-08-01T03:57:03.885Z,208
2017-08-01T03:58:03.868Z,228
2017-08-01T03:59:03.848Z,256
2017-08-01T04:00:03.836Z,284
2017-08-01T04:01:03.819Z,312
2017-08-01T04:02:03.788Z,344
2017-08-01T04:03:03.773Z,380
2017-08-01T04:04:03.752Z,416
2017-08-01T04:05:03.740Z,460
2017-08-01T04:06:03.721Z,504
2017-08-01T04:07:03.403Z,552
2017-08-01T04:08:03.672Z,612
2017-08-01T04:09:03.657Z,672
2017-08-01T04:10:03.636Z,736
2017-08-01T04:11:03.616Z,808
2017-08-01T04:12:03.300Z,872
2017-08-01T04:13:03.590Z,944
2017-08-01T04:14:03.559Z,1008
2017-08-01T04:15:03.543Z,1080
2017-08-01T04:16:03.518Z,1156
2017-08-01T04:17:03.540Z,1228
2017-08-01T04:18:03.479Z,1308
2017-08-01T04:19:03.460Z,1408
2017-08-01T04:20:03.456Z,1532
2017-08-01T04:21:03.426Z,1704
2017-08-01T04:22:03.404Z,1964
2017-08-01T04:23:03.388Z,2284
2017-08-01T04:24:03.370Z,2596
2017-08-01T04:25:03.350Z,2848
2017-08-01T04:26:03.329Z,3060
2017-08-01T04:27:02.719Z,3216
2017-08-01T04:28:03.293Z,3312
2017-08-01T04:29:03.274Z,3384
2017-08-01T04:30:03.255Z,3460
2017-08-01T04:31:03.050Z,3556
2017-08-01T04:32:03.391Z,3676
2017-08-01T04:33:03.213Z,3876
2017-08-01T04:34:03.177Z,4184
2017-08-01T04:35:03.165Z,4620
2017-08-01T04:36:02.848Z,5008
2017-08-01T04:37:02.829Z,5264
2017-08-01T04:38:02.514Z,5384
2017-08-01T04:39:02.787Z,5408
2017-08-01T04:40:03.071Z,5396
2017-08-01T04:41:02.752Z,5396
2017-08-01T04:42:03.031Z,5400
2017-08-01T04:43:03.012Z,5440
2017-08-01T04:44:02.697Z,5512
2017-08-01T04:45:02.681Z,5604
2017-08-01T04:46:02.666Z,5696
2017-08-01T04:47:02.937Z,5764
2017-08-01T04:48:02.623Z,5828
2017-08-01T04:49:02.898Z,5832
2017-08-01T04:50:02.880Z,5760
2017-08-01T04:51:02.867Z,5700
2017-08-01T04:52:02.547Z,5708
2017-08-01T04:53:02.844Z,5796
2017-08-01T04:54:02.511Z,5816
2017-08-01T04:55:02.796Z,5872
2017-08-01T04:56:02.778Z,5924
2017-08-01T04:57:02.759Z,5964
2017-08-01T04:58:02.447Z,6012
2017-08-01T04:59:02.717Z,6044
2017-08-01T05:00:02.704Z,6068
2017-08-01T05:01:02.692Z,6052
2017-08-01T05:02:02.072Z,6016
2017-08-01T05:03:02.352Z,5940
2017-08-01T05:04:02.631Z,5892
2017-08-01T05:05:02.313Z,5908
2017-08-01T05:06:02.596Z,6060
2017-08-01T05:07:02.277Z,6336
2017-08-01T05:08:02.559Z,6636
2017-08-01T05:09:02.248Z,6860
2017-08-01T05:10:02.222Z,7088
2017-08-01T05:11:02.630Z,7188
2017-08-01T05:12:02.485Z,7376
2017-08-01T05:13:02.465Z,7440
2017-08-01T05:14:02.467Z,7492
2017-08-01T05:15:02.428Z,7440
2017-08-01T05:16:02.411Z,7328
2017-08-01T05:17:02.390Z,7208
2017-08-01T05:18:01.782Z,6992
2017-08-01T05:19:02.370Z,6764
2017-08-01T05:20:01.741Z,6564
2017-08-01T05:21:02.317Z,6460
2017-08-01T05:22:02.299Z,6532
2017-08-01T05:23:02.286Z,6752
2017-08-01T05:24:01.967Z,6652
2017-08-01T05:25:01.950Z,6468
2017-08-01T05:26:01.931Z,6320
2017-08-01T05:27:02.212Z,6108
2017-08-01T05:28:02.189Z,5952
2017-08-01T05:29:02.177Z,5780
2017-08-01T05:30:02.178Z,5804
2017-08-01T05:31:01.841Z,5908
2017-08-01T05:32:01.826Z,6108
2017-08-01T05:33:02.106Z,6112
2017-08-01T05:34:02.081Z,6256
2017-08-01T05:35:01.792Z,6220
2017-08-01T05:36:01.754Z,6236
2017-08-01T05:37:01.732Z,6564
2017-08-01T05:38:01.715Z,6784
2017-08-01T05:39:01.999Z,7196
2017-08-01T05:40:01.980Z,7320
2017-08-01T05:41:01.952Z,7556
2017-08-01T05:42:01.951Z,8228
2017-08-01T05:43:01.929Z,8812
2017-08-01T05:44:01.018Z,8968
2017-08-01T05:45:01.883Z,8328
2017-08-01T05:46:01.867Z,7368
2017-08-01T05:47:01.851Z,7164
2017-08-01T05:48:01.832Z,6648
2017-08-01T05:49:01.824Z,6476
2017-08-01T05:50:01.800Z,6456
2017-08-01T05:51:01.786Z,6652
2017-08-01T05:52:01.770Z,6716
2017-08-01T05:53:01.744Z,7240
2017-08-01T05:54:01.728Z,7976
2017-08-01T05:55:01.708Z,9108
2017-08-01T05:56:01.698Z,10116
2017-08-01T05:57:01.675Z,11040
2017-08-01T05:58:01.664Z,11344
2017-08-01T05:59:01.640Z,11640
2017-08-01T06:00:01.630Z,11796
2017-08-01T06:01:01.728Z,11508
2017-08-01T06:02:01.293Z,11552
2017-08-01T06:03:01.571Z,10900
2017-08-01T06:04:01.554Z,10148
2017-08-01T06:05:01.545Z,9904
2017-08-01T06:06:01.522Z,9724
2017-08-01T06:07:01.507Z,9632
2017-08-01T06:08:01.190Z,9564
2017-08-01T06:09:01.471Z,10720
2017-08-01T06:10:01.451Z,9788
2017-08-01T06:11:01.438Z,10356
2017-08-01T06:12:01.427Z,11736
2017-08-01T06:13:01.412Z,17984
2017-08-01T06:14:01.395Z,14100
2017-08-01T06:15:00.782Z,15020
2017-08-01T06:16:01.353Z,19712
2017-08-01T06:17:01.348Z,26368
2017-08-01T06:18:01.321Z,29152
2017-08-01T06:19:01.305Z,21184
2017-08-01T06:20:00.998Z,24416
2017-08-01T06:21:01.271Z,26432
2017-08-01T06:22:01.282Z,28800
2017-08-01T06:23:01.243Z,18816
2017-08-01T06:24:00.942Z,14224
2017-08-01T06:25:01.210Z,13540
2017-08-01T06:26:01.199Z,14148
2017-08-01T06:27:01.189Z,12708
2017-08-01T06:28:01.165Z,13160
2017-08-01T06:29:01.169Z,13660
2017-08-01T06:30:01.137Z,13540
2017-08-01T06:31:00.834Z,13396
2017-08-01T06:32:00.879Z,15356
2017-08-01T06:33:01.096Z,19904
2017-08-01T06:34:01.078Z,25312
2017-08-01T06:35:01.060Z,27584
2017-08-01T06:36:01.069Z,26880
2017-08-01T06:37:00.734Z,24480
2017-08-01T06:38:00.718Z,29664
2017-08-01T06:39:00.742Z,28256
2017-08-01T06:40:00.988Z,26400
2017-08-01T06:41:00.393Z,21664
2017-08-01T06:42:00.958Z,14696
2017-08-01T06:43:00.946Z,15416
2017-08-01T06:44:00.933Z,16296
2017-08-01T06:45:00.916Z,17188
2017-08-01T06:46:00.611Z,18624
2017-08-01T06:47:00.595Z,19328
2017-08-01T06:48:00.575Z,19968
2017-08-01T06:49:00.567Z,20352
2017-08-01T06:50:00.555Z,19904
2017-08-01T06:51:00.533Z,19616
2017-08-01T06:52:00.528Z,20928
2017-08-01T06:53:00.803Z,22432
2017-08-01T06:54:00.800Z,28800
2017-08-01T06:55:00.786Z,25440
2017-08-01T06:56:00.764Z,23968
2017-08-01T06:57:00.753Z,26624
2017-08-01T06:58:00.737Z,27680
2017-08-01T06:59:00.728Z,24192
2017-08-01T07:00:00.510Z,23392
2017-08-01T07:01:00.694Z,24768
2017-08-01T07:02:00.687Z,24672
2017-08-01T07:03:00.671Z,24416
2017-08-01T07:04:00.742Z,23584
2017-08-01T07:05:00.652Z,23584
2017-08-01T07:06:00.474Z,26112
2017-08-01T07:07:00.329Z,24800
2017-08-01T07:08:01.373Z,22752
2017-08-01T07:09:00.080Z,23296
2017-08-01T07:09:59.995Z,22464
2017-08-01T07:11:00.565Z,22432
2017-08-01T07:12:00.581Z,22848
2017-08-01T07:13:00.242Z,22656
2017-08-01T07:14:00.523Z,22304
2017-08-01T07:15:00.512Z,21984
2017-08-01T07:16:00.503Z,21888
2017-08-01T07:17:00.275Z,21856
2017-08-01T07:18:00.575Z,23200
2017-08-01T07:19:00.075Z,26400
2017-08-01T07:20:00.447Z,29440
2017-08-01T07:21:00.433Z,35392
2017-08-01T07:22:00.560Z,30624
2017-08-01T07:23:00.217Z,34816
2017-08-01T07:24:00.154Z,37504
2017-08-01T07:25:00.383Z,30240
2017-08-01T07:26:00.372Z,30560
2017-08-01T07:27:00.358Z,25056
2017-08-01T07:27:59.752Z,26880
2017-08-01T07:29:00.336Z,29184
2017-08-01T07:30:00.318Z,29088
2017-08-01T07:31:00.311Z,23904
2017-08-01T07:31:59.994Z,22016
2017-08-01T07:33:00.291Z,19616
2017-08-01T07:33:59.981Z,18304
2017-08-01T07:35:00.280Z,18144
2017-08-01T07:36:00.257Z,18144
2017-08-01T07:36:59.941Z,17920
2017-08-01T07:38:00.223Z,18112
2017-08-01T07:39:00.209Z,18592
2017-08-01T07:40:00.198Z,18720
2017-08-01T07:41:00.185Z,18880
2017-08-01T07:42:00.040Z,19520
2017-08-01T07:43:00.167Z,20288
2017-08-01T07:43:59.848Z,20736
2017-08-01T07:44:59.539Z,20864
2017-08-01T07:46:00.122Z,20800
2017-08-01T07:46:59.514Z,20896
2017-08-01T07:48:00.093Z,21216
2017-08-01T07:48:59.793Z,21824
2017-08-01T07:50:00.931Z,22816
2017-08-01T07:50:59.763Z,24000
2017-08-01T07:51:59.759Z,23968
2017-08-01T07:53:00.033Z,23168
2017-08-01T07:54:00.017Z,21792
2017-08-01T07:55:00.364Z,20704
2017-08-01T07:56:00.220Z,19808
2017-08-01T07:57:00.550Z,19264
2017-08-01T07:58:00.132Z,19072
2017-08-01T07:58:59.548Z,19328
2017-08-01T07:59:59.940Z,19744
2017-08-01T08:00:59.461Z,20192
2017-08-01T08:01:59.679Z,20640
2017-08-01T08:03:00.566Z,21216
2017-08-01T08:04:00.159Z,21632
2017-08-01T08:04:59.582Z,21824
2017-08-01T08:05:59.573Z,21696
2017-08-01T08:06:59.552Z,21632
2017-08-01T08:07:59.540Z,21344
2017-08-01T08:08:59.831Z,21056
2017-08-01T08:09:59.522Z,20896
2017-08-01T08:10:59.499Z,20928
2017-08-01T08:11:59.783Z,21024
2017-08-01T08:12:59.772Z,21216
2017-08-01T08:13:59.760Z,21504
2017-08-01T08:14:59.514Z,22048
2017-08-01T08:15:59.744Z,22720
2017-08-01T08:16:59.718Z,22752
2017-08-01T08:17:59.565Z,22944
2017-08-01T08:18:59.697Z,22816
2017-08-01T08:20:00.520Z,22688
2017-08-01T08:21:01.333Z,22432
2017-08-01T08:21:59.873Z,22112
2017-08-01T08:22:59.619Z,21632
2017-08-01T08:23:59.908Z,21184
2017-08-01T08:25:00.240Z,20768
2017-08-01T08:25:59.610Z,20352
2017-08-01T08:26:59.590Z,19904
2017-08-01T08:27:59.573Z,19392
2017-08-01T08:28:59.621Z,18784
2017-08-01T08:29:59.600Z,18208
2017-08-01T08:30:59.531Z,17664
2017-08-01T08:31:58.923Z,17248
2017-08-01T08:32:59.501Z,17024
2017-08-01T08:33:59.494Z,16820
2017-08-01T08:34:59.184Z,17120
2017-08-01T08:35:59.464Z,17504
2017-08-01T08:36:59.154Z,18112
2017-08-01T08:37:59.535Z,18944
2017-08-01T08:38:59.417Z,20096
2017-08-01T08:39:59.407Z,21504
2017-08-01T08:40:59.390Z,22848
2017-08-01T08:41:59.376Z,23872
2017-08-01T08:42:59.361Z,24544
2017-08-01T08:43:59.357Z,24864
2017-08-01T08:44:59.340Z,25216
2017-08-01T08:45:59.030Z,25664
2017-08-01T08:46:59.344Z,26560
2017-08-01T08:47:58.999Z,27072
2017-08-01T08:48:59.290Z,27936
2017-08-01T08:49:59.269Z,28096
2017-08-01T08:50:58.962Z,27616
2017-08-01T08:51:59.245Z,26944
2017-08-01T08:52:58.649Z,26272
2017-08-01T08:53:58.922Z,25152
2017-08-01T08:54:58.913Z,23744
2017-08-01T08:55:59.217Z,22240
2017-08-01T08:56:59.177Z,20928
2017-08-01T08:57:59.176Z,19744
2017-08-01T08:58:59.164Z,18816
2017-08-01T08:59:58.838Z,18144
2017-08-01T09:00:58.832Z,17504
2017-08-01T09:01:58.911Z,16332
2017-08-01T09:02:59.148Z,15276
2017-08-01T09:03:58.560Z,14500
2017-08-01T09:04:58.941Z,14048
2017-08-01T09:05:59.070Z,13904
2017-08-01T09:06:58.944Z,13940
2017-08-01T09:07:59.058Z,14052
2017-08-01T09:08:58.729Z,14124
2017-08-01T09:09:59.011Z,14056
2017-08-01T09:10:58.995Z,13708
2017-08-01T09:11:58.684Z,13260
2017-08-01T09:12:58.970Z,13276
2017-08-01T09:13:58.661Z,13764
2017-08-01T09:14:58.940Z,13988
2017-08-01T09:15:58.927Z,13604
2017-08-01T09:16:58.918Z,12664
2017-08-01T09:17:58.894Z,11940
2017-08-01T09:18:58.584Z,12444
2017-08-01T09:19:58.868Z,14772
2017-08-01T09:20:58.561Z,18368
2017-08-01T09:21:58.879Z,21664
2017-08-01T09:22:58.826Z,23904
2017-08-01T09:23:58.813Z,24096
2017-08-01T09:24:58.802Z,23776
2017-08-01T09:25:58.791Z,23840
2017-08-01T09:26:58.474Z,23520
2017-08-01T09:27:58.752Z,22656
2017-08-01T09:28:58.748Z,21376
2017-08-01T09:29:58.729Z,20160
2017-08-01T09:30:58.713Z,18624
2017-08-01T09:31:58.697Z,17504
2017-08-01T09:32:58.690Z,16916
2017-08-01T09:33:58.376Z,16572
2017-08-01T09:34:58.367Z,16212
2017-08-01T09:35:58.640Z,15364
2017-08-01T09:36:58.628Z,14212
2017-08-01T09:37:58.616Z,13340
2017-08-01T09:38:58.601Z,13248
2017-08-01T09:39:58.588Z,14004
2017-08-01T09:40:58.277Z,15160
2017-08-01T09:41:58.567Z,16308
2017-08-01T09:42:58.552Z,17536
2017-08-01T09:43:58.233Z,18624
2017-08-01T09:44:58.225Z,19968
2017-08-01T09:45:58.557Z,21600
2017-08-01T09:46:58.488Z,23552
2017-08-01T09:47:58.486Z,25696
2017-08-01T09:48:58.461Z,27392
2017-08-01T09:49:58.459Z,28416
2017-08-01T09:50:58.440Z,28448
2017-08-01T09:51:58.122Z,28416
2017-08-01T09:52:58.109Z,29152
2017-08-01T09:53:58.398Z,30624
2017-08-01T09:54:58.392Z,32160
2017-08-01T09:55:58.373Z,33920
2017-08-01T09:56:57.763Z,34816
2017-08-01T09:57:58.344Z,36000
2017-08-01T09:58:57.733Z,36640
2017-08-01T09:59:58.316Z,35264
2017-08-01T10:00:58.307Z,33632
2017-08-01T10:01:57.704Z,33216
2017-08-01T10:02:58.284Z,34912
2017-08-01T10:03:58.297Z,36064
2017-08-01T10:04:57.979Z,32416
2017-08-01T10:05:57.654Z,26976
2017-08-01T10:06:58.232Z,26912
2017-08-01T10:07:58.216Z,35424
2017-08-01T10:08:57.917Z,47264
2017-08-01T10:09:58.174Z,62848
2017-08-01T10:10:59.010Z,66112
2017-08-01T10:11:58.772Z,77536
2017-08-01T10:12:58.883Z,63488
2017-08-01T10:13:58.140Z,79968
2017-08-01T10:14:58.612Z,64960
2017-08-01T10:15:58.136Z,79936
2017-08-01T10:16:58.115Z,51584
2017-08-01T10:17:57.510Z,97728
2017-08-01T10:18:58.249Z,89280
2017-08-01T10:19:57.800Z,85184
2017-08-01T10:20:57.829Z,85792
2017-08-01T10:21:57.773Z,83040
2017-08-01T10:22:57.772Z,80768
2017-08-01T10:23:57.755Z,79680
2017-08-01T10:24:57.748Z,82528
2017-08-01T10:25:58.076Z,88640
2017-08-01T10:26:57.745Z,71872
2017-08-01T10:27:57.728Z,69888
2017-08-01T10:28:58.032Z,60960
2017-08-01T10:29:58.016Z,49568
2017-08-01T10:30:57.714Z,43488
2017-08-01T10:31:57.409Z,41280
2017-08-01T10:32:57.698Z,38976
2017-08-01T10:33:57.988Z,37216
2017-08-01T10:34:57.981Z,34592
2017-08-01T10:35:57.679Z,32192
2017-08-01T10:36:57.972Z,28416
2017-08-01T10:37:57.967Z,28192
2017-08-01T10:38:57.958Z,29856
2017-08-01T10:39:57.945Z,30336
2017-08-01T10:40:57.938Z,30848
2017-08-01T10:41:57.935Z,30176
2017-08-01T10:42:57.946Z,29376
2017-08-01T10:43:57.918Z,27808
2017-08-01T10:44:57.912Z,25504
2017-08-01T10:45:57.894Z,23360
2017-08-01T10:46:57.892Z,21280
2017-08-01T10:47:57.875Z,22304
2017-08-01T10:48:57.590Z,24384
2017-08-01T10:49:57.864Z,26240
2017-08-01T10:50:57.963Z,29056
2017-08-01T10:51:57.569Z,30080
2017-08-01T10:52:57.926Z,30720
2017-08-01T10:53:57.595Z,31680
2017-08-01T10:54:57.817Z,32096
2017-08-01T10:55:57.916Z,32736
2017-08-01T10:56:57.821Z,35040
2017-08-01T10:57:57.510Z,32736
2017-08-01T10:58:57.473Z,30432
2017-08-01T10:59:57.770Z,30240
2017-08-01T11:00:57.807Z,31072
2017-08-01T11:01:57.739Z,32800
2017-08-01T11:02:57.730Z,33696
2017-08-01T11:03:57.722Z,33472
2017-08-01T11:04:57.712Z,30624
2017-08-01T11:05:57.698Z,29888
2017-08-01T11:06:57.699Z,31136
2017-08-01T11:07:57.395Z,31296
2017-08-01T11:08:57.663Z,37664
2017-08-01T11:09:57.671Z,37440
2017-08-01T11:10:57.644Z,34144
2017-08-01T11:11:57.633Z,31328
2017-08-01T11:12:57.625Z,30720
2017-08-01T11:13:57.609Z,29344
2017-08-01T11:14:57.633Z,28800
2017-08-01T11:15:57.606Z,30848
2017-08-01T11:16:57.627Z,34784
2017-08-01T11:17:57.572Z,45152
2017-08-01T11:18:57.567Z,41536
2017-08-01T11:19:57.554Z,38112
2017-08-01T11:20:57.534Z,34080
2017-08-01T11:21:57.527Z,35264
2017-08-01T11:22:57.517Z,36448
2017-08-01T11:23:57.509Z,34336
2017-08-01T11:24:57.494Z,33472
2017-08-01T11:25:57.209Z,33824
2017-08-01T11:26:57.480Z,33568
2017-08-01T11:27:57.466Z,35456
2017-08-01T11:28:57.459Z,36448
2017-08-01T11:29:57.442Z,35808
2017-08-01T11:30:57.450Z,35584
2017-08-01T11:31:57.423Z,36256
2017-08-01T11:32:57.415Z,36352
2017-08-01T11:33:57.400Z,36992
2017-08-01T11:34:57.441Z,39296
2017-08-01T11:35:57.392Z,38400
2017-08-01T11:36:57.372Z,34112
2017-08-01T11:37:57.361Z,29696
2017-08-01T11:38:57.392Z,25504
2017-08-01T11:39:57.338Z,22240
2017-08-01T11:40:57.333Z,20704
2017-08-01T11:41:57.317Z,19840
2017-08-01T11:42:57.308Z,19008
2017-08-01T11:43:57.854Z,18400
2017-08-01T11:44:57.289Z,17856
2017-08-01T11:45:57.282Z,17984
2017-08-01T11:46:57.326Z,18592
2017-08-01T11:47:57.261Z,19168
2017-08-01T11:48:57.306Z,20096
2017-08-01T11:49:57.304Z,21280
2017-08-01T11:50:56.626Z,22304
2017-08-01T11:51:57.206Z,23296
2017-08-01T11:52:57.200Z,23968
2017-08-01T11:53:57.179Z,23840
2017-08-01T11:54:57.217Z,23264
2017-08-01T11:55:57.160Z,22208
2017-08-01T11:56:57.153Z,20032
2017-08-01T11:57:57.133Z,17440
2017-08-01T11:58:57.117Z,15984
2017-08-01T11:59:57.111Z,15708
2017-08-01T12:00:57.096Z,16068
2017-08-01T12:01:57.083Z,16776
2017-08-01T12:02:57.070Z,17196
2017-08-01T12:03:57.066Z,17276
2017-08-01T12:04:57.052Z,17952
2017-08-01T12:05:57.207Z,18784
2017-08-01T12:06:58.019Z,19616
2017-08-01T12:07:57.528Z,22080
2017-08-01T12:08:57.005Z,26720
2017-08-01T12:09:56.982Z,32192
2017-08-01T12:10:56.973Z,35712
2017-08-01T12:11:56.995Z,36448
2017-08-01T12:12:56.961Z,38112
2017-08-01T12:13:56.636Z,40288
2017-08-01T12:14:56.934Z,40224
2017-08-01T12:15:56.920Z,37216
2017-08-01T12:16:56.894Z,34176
2017-08-01T12:17:56.592Z,31488
2017-08-01T12:18:56.873Z,29536
2017-08-01T12:19:56.860Z,29344
2017-08-01T12:20:56.849Z,29440
2017-08-01T12:21:56.843Z,30016
2017-08-01T12:22:56.822Z,30464
2017-08-01T12:23:56.810Z,31136
2017-08-01T12:24:56.800Z,32384
2017-08-01T12:25:56.793Z,31904
2017-08-01T12:26:56.606Z,30528
2017-08-01T12:27:56.530Z,27008
2017-08-01T12:28:56.812Z,25216
2017-08-01T12:29:56.750Z,25536
2017-08-01T12:30:56.740Z,26368
2017-08-01T12:31:56.721Z,26752
2017-08-01T12:32:56.708Z,27936
2017-08-01T12:33:56.402Z,32544
2017-08-01T12:34:56.389Z,32096
2017-08-01T12:35:56.676Z,33184
2017-08-01T12:36:56.366Z,33440
2017-08-01T12:37:56.370Z,35072
2017-08-01T12:38:56.636Z,36960
2017-08-01T12:39:56.636Z,37632
2017-08-01T12:40:56.622Z,37504
2017-08-01T12:41:56.825Z,36736
2017-08-01T12:42:56.595Z,35104
2017-08-01T12:43:56.617Z,34208
2017-08-01T12:44:56.582Z,33696
2017-08-01T12:45:56.267Z,34144
2017-08-01T12:46:56.264Z,35040
2017-08-01T12:47:56.538Z,35552
2017-08-01T12:48:56.527Z,34656
2017-08-01T12:49:56.518Z,33056
2017-08-01T12:50:56.513Z,32928
2017-08-01T12:51:56.199Z,34528
2017-08-01T12:52:56.501Z,35040
2017-08-01T12:53:55.884Z,34144
2017-08-01T12:54:56.172Z,33664
2017-08-01T12:55:56.455Z,32832
2017-08-01T12:56:56.148Z,31680
2017-08-01T12:57:56.436Z,30112
2017-08-01T12:58:56.516Z,28128
2017-08-01T12:59:56.205Z,26304
2017-08-01T13:00:56.539Z,25120
2017-08-01T13:01:56.445Z,24512
2017-08-01T13:02:56.384Z,23936
2017-08-01T13:03:56.368Z,23296
2017-08-01T13:04:56.361Z,23072
2017-08-01T13:05:56.354Z,23296
2017-08-01T13:06:56.341Z,23584
2017-08-01T13:07:56.343Z,23584
2017-08-01T13:08:56.318Z,23616
2017-08-01T13:09:56.374Z,24512
2017-08-01T13:10:56.308Z,25792
2017-08-01T13:11:56.282Z,25664
2017-08-01T13:12:55.972Z,24288
2017-08-01T13:13:56.256Z,23200
2017-08-01T13:14:56.248Z,23104
2017-08-01T13:15:56.233Z,23072
2017-08-01T13:16:56.220Z,22752
2017-08-01T13:17:56.214Z,22400
2017-08-01T13:18:56.131Z,22720
2017-08-01T13:19:56.283Z,24480
2017-08-01T13:20:55.874Z,27040
2017-08-01T13:21:56.156Z,28448
2017-08-01T13:22:56.149Z,28480
2017-08-01T13:23:55.836Z,27072
2017-08-01T13:24:56.173Z,25152
2017-08-01T13:25:56.112Z,24640